Time;durP1;ratioP1;P1;durP2;ratioP2;P2;SDS_P1;SDS_P2;PMS_P1;PMS_P2;Temp;Humidity;BMP_temperature;BMP_pressure;BME280_temperature;BME280_humidity;BME280_pressure;Samples;Min_cycle;Max_cycle;Signal;HPM_P1;HPM_P2
2022/08/29 00:01:26;;;;;;;29.47;18.60;;;;;;;22.89;74.33;98976.22;5003830;28;20175;-84
2022/08/29 00:03:56;;;;;;;31.30;19.87;;;;;;;23.19;74.75;99048.13;4996138;28;20254;-84
2022/08/29 00:06:22;;;;;;;31.70;19.13;;;;;;;22.00;75.07;98854.25;5003203;28;20262;-80
2022/08/29 00:08:48;;;;;;;36.57;21.83;;;;;;;22.71;75.24;98997.97;5006708;28;20167;-82
2022/08/29 00:11:13;;;;;;;29.77;21.40;;;;;;;22.58;75.40;98998.91;5005852;28;20568;-82
2022/08/29 00:13:39;;;;;;;30.53;19.90;;;;;;;21.45;75.29;98802.38;5013916;28;20237;-83
2022/08/29 00:16:05;;;;;;;25.23;17.00;;;;;;;21.16;74.42;98730.56;5013554;28;20258;-83
2022/08/29 00:18:31;;;;;;;24.37;16.03;;;;;;;23.05;74.21;99049.16;5014026;28;20658;-83
2022/08/29 00:20:56;;;;;;;24.80;16.80;;;;;;;20.98;73.46;98684.41;5008675;28;20183;-83
2022/08/29 00:23:22;;;;;;;24.40;15.43;;;;;;;23.20;73.38;99060.19;4994298;28;20165;-83
2022/08/29 00:25:47;;;;;;;26.43;16.80;;;;;;;22.51;73.38;98957.72;4994195;28;20202;-83
2022/08/29 00:28:13;;;;;;;29.93;18.00;;;;;;;21.49;73.75;98782.63;4994136;28;20222;-83
2022/08/29 00:30:39;;;;;;;23.63;16.50;;;;;;;22.98;74.00;99043.25;4995305;28;20183;-83
2022/08/29 00:33:05;;;;;;;30.80;17.17;;;;;;;21.69;73.68;98845.97;4994581;28;20643;-84
2022/08/29 00:35:34;;;;;;;26.37;16.97;;;;;;;23.17;73.56;99065.38;4994432;28;20608;-82
2022/08/29 00:38:02;;;;;;;26.97;17.13;;;;;;;21.64;73.06;98805.66;4994127;28;20268;-84
2022/08/29 00:40:38;;;;;;;26.23;17.43;;;;;;;21.55;73.38;98806.59;5010278;28;20207;-83
2022/08/29 00:43:05;;;;;;;29.60;18.07;;;;;;;23.01;73.71;99053.53;4995475;28;20249;-85
2022/08/29 00:45:32;;;;;;;23.60;14.90;;;;;;;22.31;72.61;98956.22;5001053;28;20678;-84
2022/08/29 00:48:03;;;;;;;23.83;15.40;;;;;;;22.81;73.34;99056.34;5012027;28;20253;-84
2022/08/29 00:50:52;;;;;;;23.53;15.10;;;;;;;21.75;72.58;98868.25;5012451;28;20178;-81
2022/08/29 00:53:35;;;;;;;23.63;14.23;;;;;;;21.36;72.58;98835.97;5012897;28;20248;-82
2022/08/29 00:56:04;;;;;;;25.37;14.97;;;;;;;22.82;73.68;99068.38;5012826;28;20174;-82
2022/08/29 00:58:38;;;;;;;27.20;17.50;;;;;;;22.76;74.66;99076.19;5012878;28;20170;-82
2022/08/29 01:01:04;;;;;;;26.40;17.70;;;;;;;22.75;74.64;99074.47;5005223;28;20174;-81
2022/08/29 01:03:32;;;;;;;24.77;16.60;;;;;;;21.96;74.79;98957.41;4993527;28;20643;-81
2022/08/29 01:05:59;;;;;;;23.37;14.73;;;;;;;20.87;73.71;98744.53;5011713;28;20226;-82
2022/08/29 01:08:24;;;;;;;23.93;13.43;;;;;;;22.89;73.43;99070.03;5012747;28;20266;-82
2022/08/29 01:13:40;;;;;;;17.80;12.63;;;;;;;22.56;71.84;98979.16;5013008;28;20181;-81
2022/08/29 01:16:07;;;;;;;20.90;12.67;;;;;;;21.11;71.93;98731.47;5011005;28;20170;-81
2022/08/29 01:18:34;;;;;;;17.07;12.00;;;;;;;22.09;72.62;98941.81;4995224;28;20178;-81
2022/08/29 01:21:02;;;;;;;22.53;12.73;;;;;;;22.83;73.48;99064.06;5008023;28;20199;-82
2022/08/29 01:23:46;;;;;;;21.60;12.27;;;;;;;22.83;73.09;99064.06;4992731;28;20258;-84
2022/08/29 01:26:12;;;;;;;21.73;13.07;;;;;;;21.69;75.65;98912.97;4992525;28;20199;-83
2022/08/29 01:28:42;;;;;;;22.73;12.43;;;;;;;20.16;74.93;98658.41;4993157;28;20700;-83
2022/08/29 01:31:13;;;;;;;22.40;12.70;;;;;;;21.22;74.91;98837.78;4993042;28;20636;-83
2022/08/29 01:33:48;;;;;;;17.87;11.60;;;;;;;21.54;73.87;98848.66;4992558;28;20171;-85
2022/08/29 01:36:18;;;;;;;22.90;12.13;;;;;;;22.38;74.26;98998.28;4996360;28;20178;-82
2022/08/29 01:38:44;;;;;;;24.63;12.60;;;;;;;22.74;74.75;99059.00;5012404;28;20182;-81
2022/08/29 01:41:11;;;;;;;20.63;12.40;;;;;;;22.69;74.93;99068.53;4987333;28;20214;-83
2022/08/29 01:43:46;;;;;;;18.10;12.40;;;;;;;22.53;76.26;99047.13;4992606;28;20174;-83
2022/08/29 01:46:15;;;;;;;20.40;14.17;;;;;;;21.38;76.17;98847.09;5004639;28;20228;-83
2022/08/29 01:48:43;;;;;;;24.23;14.17;;;;;;;22.59;76.39;99062.56;5012148;28;20176;-83
2022/08/29 01:51:10;;;;;;;24.13;15.10;;;;;;;20.96;76.20;98799.34;5011520;28;20177;-82
2022/08/29 01:53:36;;;;;;;20.23;14.53;;;;;;;22.42;76.69;99056.69;5012034;28;20190;-83
2022/08/29 01:56:24;;;;;;;22.77;14.63;;;;;;;22.34;78.05;99058.50;4999193;28;20203;-82
2022/08/29 01:58:51;;;;;;;23.53;15.33;;;;;;;22.36;77.74;99058.50;4991760;28;20656;-83
2022/08/29 02:01:21;;;;;;;20.03;14.87;;;;;;;21.16;78.00;98904.78;5006366;28;20201;-82
2022/08/29 02:03:47;;;;;;;22.53;15.40;;;;;;;20.74;78.39;98800.34;5021663;28;20239;-83
2022/08/29 02:06:12;;;;;;;26.43;16.03;;;;;;;22.24;79.03;99062.91;5030457;28;20230;-84
2022/08/29 02:08:39;;;;;;;25.73;17.47;;;;;;;22.28;78.61;99055.97;5030575;28;20177;-80
2022/08/29 02:11:10;;;;;;;21.83;15.03;;;;;;;21.93;78.40;98993.53;5009443;28;20211;-81
2022/08/29 02:13:45;;;;;;;21.50;14.67;;;;;;;22.19;78.99;99059.50;4991965;28;20280;-81
2022/08/29 02:16:11;;;;;;;25.43;15.07;;;;;;;20.56;79.01;98785.91;4993587;28;20265;-83
2022/08/29 02:18:37;;;;;;;23.37;14.67;;;;;;;21.93;80.17;99022.75;4991980;28;20167;-82
2022/08/29 02:21:03;;;;;;;25.37;15.97;;;;;;;20.19;81.25;98745.78;4993072;28;20710;-82
2022/08/29 02:23:30;;;;;;;24.60;16.03;;;;;;;21.90;82.55;99060.56;4991768;28;20258;-82
2022/08/29 02:25:56;;;;;;;25.10;16.20;;;;;;;19.51;82.39;98666.47;4991877;28;20564;-83
2022/08/29 02:28:21;;;;;;;24.70;16.13;;;;;;;21.82;83.16;99064.88;4992729;28;20171;-81
2022/08/29 02:30:51;;;;;;;23.30;15.87;;;;;;;21.83;83.60;99056.31;5008353;28;20205;-79
2022/08/29 02:33:17;;;;;;;23.07;15.57;;;;;;;19.50;82.37;98648.50;5015674;28;20274;-83
2022/08/29 02:35:43;;;;;;;22.53;15.47;;;;;;;21.93;82.52;99053.69;5011264;28;20188;-82
2022/08/29 02:38:09;;;;;;;24.83;16.03;;;;;;;20.37;82.90;98781.72;5011616;28;20174;-83
2022/08/29 02:40:35;;;;;;;24.97;16.10;;;;;;;21.39;82.85;98954.41;5004729;28;20172;-81
2022/08/29 02:43:01;;;;;;;27.90;16.67;;;;;;;20.11;83.71;98762.97;4991812;28;20636;-83
2022/08/29 02:45:27;;;;;;;25.07;17.20;;;;;;;21.37;83.20;98961.28;4992799;28;20190;-82
2022/08/29 02:47:52;;;;;;;23.43;17.07;;;;;;;21.35;83.10;98968.16;4991631;28;20199;-82
2022/08/29 02:50:18;;;;;;;25.10;17.73;;;;;;;20.02;82.88;98750.19;4993695;28;20713;-82
2022/08/29 02:52:44;;;;;;;33.47;17.57;;;;;;;21.21;83.79;98954.50;4991936;28;20262;-82
2022/08/29 02:55:14;;;;;;;33.90;17.80;;;;;;;21.93;84.44;99073.44;4991576;28;20202;-82
2022/08/29 02:57:40;;;;;;;36.80;16.40;;;;;;;21.16;84.24;98963.97;5006441;28;20195;-83
2022/08/29 03:00:08;;;;;;;25.47;14.80;;;;;;;21.90;83.41;99082.06;4991876;28;20174;-82
2022/08/29 03:02:34;;;;;;;29.83;15.53;;;;;;;21.79;83.18;99086.38;4991422;28;20241;-84
2022/08/29 03:04:59;;;;;;;30.33;14.93;;;;;;;18.76;81.85;98572.59;4991295;28;20262;-83
2022/08/29 03:07:25;;;;;;;26.13;14.67;;;;;;;19.16;82.23;98653.72;4991380;28;20248;-83
2022/08/29 03:09:51;;;;;;;28.20;15.00;;;;;;;20.12;82.90;98831.50;4991387;28;20164;-83
2022/08/29 03:12:17;;;;;;;27.70;16.93;;;;;;;21.69;83.43;99113.94;4994593;28;20171;-82
2022/08/29 03:14:42;;;;;;;33.50;16.70;;;;;;;21.67;83.50;99100.19;4995390;28;20269;-81
2022/08/29 03:17:08;;;;;;;26.10;15.33;;;;;;;19.54;83.75;98742.63;5015243;28;20198;-84
2022/08/29 03:19:33;;;;;;;25.73;14.13;;;;;;;21.04;83.97;98994.94;5014618;28;20535;-83
2022/08/29 03:21:59;;;;;;;25.00;15.83;;;;;;;20.85;85.24;98996.69;4997440;28;20631;-82
2022/08/29 03:24:25;;;;;;;24.90;15.27;;;;;;;20.23;85.84;98891.44;4997040;28;20156;-82
2022/08/29 03:26:50;;;;;;;31.13;16.20;;;;;;;20.12;86.02;98882.03;4993442;28;20206;-83
2022/08/29 03:29:16;;;;;;;27.43;16.97;;;;;;;21.02;85.74;99025.81;4995396;28;20163;-83
2022/08/29 03:31:41;;;;;;;29.93;16.00;;;;;;;19.08;84.78;98680.25;5009461;28;20182;-82
2022/08/29 03:34:07;;;;;;;29.20;16.17;;;;;;;20.92;85.11;98992.41;5014541;28;20545;-82
2022/08/29 03:36:33;;;;;;;27.57;15.80;;;;;;;19.00;85.93;98685.41;5013751;28;20171;-82
2022/08/29 03:38:58;;;;;;;28.90;16.30;;;;;;;19.84;85.02;98804.19;5014063;28;20183;-82
2022/08/29 03:41:26;;;;;;;30.23;16.63;;;;;;;21.33;86.13;99098.66;5001494;28;20549;-83
2022/08/29 03:43:54;;;;;;;31.77;17.50;;;;;;;19.12;87.43;98752.06;5013654;28;20178;-83
2022/08/29 03:46:20;;;;;;;31.17;17.23;;;;;;;19.50;86.98;98820.53;5014128;28;20202;-83
2022/08/29 03:48:46;;;;;;;28.17;16.87;;;;;;;19.86;87.30;98859.84;5013279;28;20229;-84
2022/08/29 03:51:12;;;;;;;44.87;18.10;;;;;;;20.12;86.89;98905.19;5003762;28;20191;-83
2022/08/29 03:53:39;;;;;;;47.23;18.73;;;;;;;21.26;87.95;99104.69;4994631;28;20289;-83
2022/08/29 03:56:06;;;;;;;39.20;17.80;;;;;;;21.37;87.27;99100.34;4994706;28;20160;-82
2022/08/29 03:58:32;;;;;;;30.23;17.33;;;;;;;21.34;86.80;99090.09;5008904;28;20673;-82
2022/08/29 04:00:58;;;;;;;27.87;17.80;;;;;;;19.36;86.11;98748.63;5004537;28;20638;-82
2022/08/29 04:03:23;;;;;;;33.17;18.23;;;;;;;19.66;86.66;98824.78;5002405;28;20171;-83
2022/08/29 04:05:49;;;;;;;35.30;19.60;;;;;;;20.43;85.34;98943.72;4994250;28;20739;-82
2022/08/29 04:08:14;;;;;;;37.33;19.50;;;;;;;20.13;84.10;98873.50;4994150;28;20180;-81
2022/08/29 04:10:40;;;;;;;32.77;18.27;;;;;;;21.30;85.59;99124.41;4995180;28;20183;-82
2022/08/29 04:13:07;;;;;;;33.73;18.57;;;;;;;20.91;85.34;99062.72;4994082;28;20187;-81
2022/08/29 04:15:34;;;;;;;27.17;18.33;;;;;;;20.81;86.31;99068.78;4994142;28;20171;-83
2022/08/29 04:18:04;;;;;;;27.97;17.77;;;;;;;19.86;87.04;98918.09;5004376;28;20218;-82
2022/08/29 04:20:34;;;;;;;28.80;17.23;;;;;;;20.75;90.59;99144.25;5013493;28;20175;-81
2022/08/29 04:22:59;;;;;;;27.23;17.17;;;;;;;18.27;92.00;98744.28;4996226;28;20164;-82
2022/08/29 04:25:28;;;;;;;29.87;16.73;;;;;;;20.56;93.26;99148.56;5000069;28;20254;-83
2022/08/29 04:27:54;;;;;;;27.23;15.30;;;;;;;19.08;93.12;98898.34;5001483;28;20564;-82
2022/08/29 04:30:23;;;;;;;28.70;15.20;;;;;;;20.79;92.70;99147.69;5011130;28;20569;-84
2022/08/29 04:32:49;;;;;;;22.53;14.43;;;;;;;18.78;94.81;98858.09;4993736;28;20168;-81
2022/08/29 04:35:15;;;;;;;33.13;15.23;;;;;;;20.66;94.23;99157.13;4993702;28;20226;-84
2022/08/29 04:37:42;;;;;;;23.20;15.20;;;;;;;20.40;96.05;99148.56;5003445;28;20716;-86
2022/08/29 04:40:10;;;;;;;27.87;16.13;;;;;;;18.38;96.38;98833.13;5017556;28;20181;-83
2022/08/29 04:42:37;;;;;;;34.00;17.23;;;;;;;19.03;97.56;98948.78;5012179;28;20187;-83
2022/08/29 04:45:04;;;;;;;24.30;17.80;;;;;;;19.30;96.40;98959.13;5011897;28;20190;-83
2022/08/29 04:47:30;;;;;;;34.60;19.00;;;;;;;19.50;94.49;98925.81;5013847;28;20210;-83
2022/08/29 04:49:55;;;;;;;30.97;18.17;;;;;;;20.86;94.42;99164.81;5032215;28;20252;-82
2022/08/29 04:52:21;;;;;;;38.00;19.33;;;;;;;20.93;94.10;99163.97;5031062;28;20712;-81
2022/08/29 04:54:47;;;;;;;35.80;19.07;;;;;;;20.10;92.33;98997.72;5031155;28;20204;-83
2022/08/29 04:57:13;;;;;;;37.30;19.13;;;;;;;19.93;92.41;98960.91;5032774;28;20634;-82
2022/08/29 04:59:38;;;;;;;32.57;17.83;;;;;;;18.36;90.95;98681.09;5031102;28;20178;-83
2022/08/29 05:02:04;;;;;;;34.90;18.43;;;;;;;19.36;90.48;98823.94;5014749;28;20575;-83
2022/08/29 05:04:29;;;;;;;28.70;19.00;;;;;;;20.57;90.08;99026.78;5012336;28;20218;-82
2022/08/29 05:06:55;;;;;;;37.50;19.17;;;;;;;20.51;90.17;99031.97;5036101;28;20228;-82
2022/08/29 05:09:21;;;;;;;46.30;25.00;;;;;;;19.95;90.92;98974.59;5041875;28;20217;-82
2022/08/29 05:11:46;;;;;;;47.63;23.10;;;;;;;20.11;91.16;98991.69;5020519;28;20198;-83
2022/08/29 05:14:12;;;;;;;56.03;25.03;;;;;;;21.23;90.05;99151.06;5011806;28;20209;-82
2022/08/29 05:16:37;;;;;;;36.50;20.50;;;;;;;21.14;89.49;99110.75;5011334;28;20195;-83
2022/08/29 05:19:05;;;;;;;37.97;19.23;;;;;;;21.71;88.63;99174.06;5026099;28;20205;-84
2022/08/29 05:21:34;;;;;;;29.20;17.43;;;;;;;19.72;88.16;98830.75;5030779;28;20273;-83
2022/08/29 05:24:00;;;;;;;27.97;16.30;;;;;;;21.65;87.24;99122.53;5031397;28;20250;-83
2022/08/29 05:26:31;;;;;;;29.50;17.17;;;;;;;21.74;86.33;99109.63;5031370;28;20198;-82
2022/08/29 05:28:57;;;;;;;28.33;16.17;;;;;;;22.17;85.86;99186.72;5031248;28;20177;-84
2022/08/29 05:31:23;;;;;;;24.90;16.17;;;;;;;20.22;84.97;98843.44;5029149;28;20276;-83
2022/08/29 05:33:49;;;;;;;29.53;15.67;;;;;;;22.56;83.57;99183.00;5030920;28;20616;-83
2022/08/29 05:36:15;;;;;;;29.23;16.93;;;;;;;22.61;82.34;99161.47;5022335;28;20188;-84
2022/08/29 05:38:40;;;;;;;38.53;19.30;;;;;;;21.53;79.71;98913.09;5032392;28;20182;-84
2022/08/29 05:41:06;;;;;;;40.30;24.97;;;;;;;21.70;77.11;98899.19;5026310;28;20245;-85
2022/08/29 05:43:32;;;;;;;38.00;22.63;;;;;;;23.25;76.66;99184.13;5030550;28;20194;-87
2022/08/29 05:46:08;;;;;;;39.40;23.87;;;;;;;22.43;75.80;99018.88;5031003;28;20178;-87
2022/08/29 05:48:34;;;;;;;41.37;22.80;;;;;;;23.66;74.68;99191.44;5025480;28;20178;-87
2022/08/29 05:51:00;;;;;;;33.40;20.13;;;;;;;22.19;74.09;99025.13;5013297;28;20189;-83
2022/08/29 05:53:26;;;;;;;36.20;22.97;;;;;;;23.02;76.80;99189.50;5025418;28;20186;-87
2022/08/29 05:55:52;;;;;;;44.30;25.77;;;;;;;22.12;76.43;98985.63;5030045;28;20205;-87
2022/08/29 05:58:18;;;;;;;42.67;26.83;;;;;;;23.49;74.29;99195.06;5036653;28;20185;-86
2022/08/29 06:00:46;;;;;;;37.67;24.40;;;;;;;23.80;72.48;99192.13;5035444;28;20201;-86
2022/08/29 06:03:12;;;;;;;40.40;22.87;;;;;;;24.25;69.12;99186.38;5031019;28;20189;-86
2022/08/29 06:05:39;;;;;;;31.93;20.97;;;;;;;22.75;67.39;98911.84;5025448;28;20694;-87
2022/08/29 06:08:05;;;;;;;27.87;17.03;;;;;;;24.32;68.40;99150.88;5013559;28;20277;-87
2022/08/29 06:10:31;;;;;;;24.90;14.67;;;;;;;24.74;67.02;99176.09;5012005;28;20701;-87
2022/08/29 06:12:56;;;;;;;28.30;17.80;;;;;;;24.78;68.80;99201.03;5014541;28;20277;-86
2022/08/29 06:15:22;;;;;;;28.20;17.37;;;;;;;22.35;67.74;98732.63;5022776;28;20193;-86
2022/08/29 06:17:48;;;;;;;34.83;19.83;;;;;;;25.28;68.71;99201.91;5022966;28;20182;-87
2022/08/29 06:20:14;;;;;;;37.60;19.77;;;;;;;25.46;65.30;99134.19;5030508;28;20189;-87
2022/08/29 06:22:39;;;;;;;32.73;20.63;;;;;;;26.00;63.75;99202.22;5028642;28;20182;-87
2022/08/29 06:25:06;;;;;;;30.30;19.43;;;;;;;25.82;63.43;99192.25;5029953;28;20190;-89
2022/08/29 06:27:31;;;;;;;27.43;16.47;;;;;;;24.18;64.24;99000.19;5030214;28;20206;-87
2022/08/29 06:29:57;;;;;;;25.13;16.00;;;;;;;23.94;63.86;98885.91;5029934;28;20243;-87
2022/08/29 06:32:23;;;;;;;27.10;14.83;;;;;;;26.12;61.85;99195.00;5024962;28;20186;-87
2022/08/29 06:34:48;;;;;;;24.40;13.53;;;;;;;26.01;63.06;99199.59;5010431;28;20182;-88
2022/08/29 06:37:14;;;;;;;18.27;12.37;;;;;;;24.86;62.45;98998.94;5000322;28;20231;-87
2022/08/29 06:39:39;;;;;;;26.23;12.37;;;;;;;24.86;62.85;98989.41;5025027;28;20182;-87
2022/08/29 06:42:05;;;;;;;20.80;12.60;;;;;;;25.34;60.86;99047.16;5029396;28;20192;-87
2022/08/29 06:44:30;;;;;;;22.60;13.23;;;;;;;25.43;62.79;99116.94;5028788;28;20682;-87
2022/08/29 06:46:57;;;;;;;21.93;12.50;;;;;;;24.82;60.15;98912.69;5031966;28;20284;-87
2022/08/29 06:49:23;;;;;;;22.10;13.13;;;;;;;25.28;58.38;98922.03;5033616;28;20244;-87
2022/08/29 06:51:53;;;;;;;19.35;12.18;;;;;;;26.71;56.65;99162.47;5033402;28;20651;-87
2022/08/29 06:54:21;;;;;;;20.02;11.38;;;;;;;25.75;56.83;99041.06;5034150;28;20186;-89
2022/08/29 06:56:47;;;;;;;19.52;12.45;;;;;;;25.57;55.96;98953.34;5034335;28;20182;-88
2022/08/29 06:59:14;;;;;;;18.17;12.13;;;;;;;27.15;55.14;99189.94;5033751;28;20218;-87
2022/08/29 07:01:41;;;;;;;18.48;11.60;;;;;;;26.22;56.56;99105.72;5025093;28;20190;-88
2022/08/29 07:04:07;;;;;;;18.50;12.10;;;;;;;26.09;55.96;99086.09;5044257;28;20207;-88
2022/08/29 07:06:33;;;;;;;17.77;11.60;;;;;;;26.91;54.63;99159.41;5029790;28;20573;-86
2022/08/29 07:08:58;;;;;;;26.77;12.15;;;;;;;26.30;54.74;99077.81;5023393;28;20198;-85
2022/08/29 07:11:26;;;;;;;24.90;12.38;;;;;;;27.43;54.19;99196.16;5025306;28;20210;-87
2022/08/29 07:13:54;;;;;;;21.35;11.55;;;;;;;27.85;52.47;99188.00;5031391;28;20192;-88
2022/08/29 07:16:20;;;;;;;22.15;12.43;;;;;;;26.04;51.22;98838.84;5032065;28;20290;-86
2022/08/29 07:18:46;;;;;;;17.58;11.30;;;;;;;26.10;51.00;98908.75;5031851;28;20653;-87
2022/08/29 07:21:15;;;;;;;20.10;12.02;;;;;;;27.42;52.49;99191.81;5030921;28;20221;-87
2022/08/29 07:23:41;;;;;;;18.02;12.48;;;;;;;27.82;51.64;99173.34;5031230;28;20186;-86
2022/08/29 07:26:12;;;;;;;22.85;13.07;;;;;;;28.24;50.09;99192.03;5029974;28;20180;-87
2022/08/29 07:28:38;;;;;;;19.83;11.65;;;;;;;27.42;49.16;99043.59;5031155;28;20177;-86
2022/08/29 07:31:04;;;;;;;20.02;13.13;;;;;;;28.38;48.86;99191.59;5030953;28;20237;-87
2022/08/29 07:33:30;;;;;;;23.75;12.82;;;;;;;27.68;48.73;99080.97;5031990;28;20244;-87
2022/08/29 07:35:56;;;;;;;18.83;12.18;;;;;;;28.87;47.04;99198.72;5030600;28;20185;-87
2022/08/29 07:38:22;;;;;;;17.58;11.73;;;;;;;27.74;47.27;99008.81;5005846;28;20618;-87
2022/08/29 07:40:47;;;;;;;21.60;13.18;;;;;;;28.86;47.98;99182.22;5031858;28;20176;-89
2022/08/29 07:43:13;;;;;;;26.02;18.27;;;;;;;29.02;47.47;99161.69;5034343;28;20192;-87
2022/08/29 07:45:39;;;;;;;26.25;16.65;;;;;;;27.26;49.14;98933.13;5032107;28;20198;-87
2022/08/29 07:48:04;;;;;;;19.20;13.70;;;;;;;27.74;48.16;99036.56;5046091;28;20216;-88
2022/08/29 07:50:30;;;;;;;20.85;11.88;;;;;;;28.73;46.07;99151.41;5012214;28;20924;-87
2022/08/29 07:52:56;;;;;;;15.07;11.05;;;;;;;29.53;45.10;99200.78;5012204;28;20180;-88
2022/08/29 07:55:21;;;;;;;25.15;17.55;;;;;;;28.45;44.26;98967.38;5012178;28;20257;-86
2022/08/29 07:57:50;;;;;;;32.92;21.77;;;;;;;29.10;44.43;99039.72;5010285;28;20186;-86
2022/08/29 08:00:16;;;;;;;148.35;126.32;;;;;;;28.63;43.93;98989.31;5028586;28;20240;-86
2022/08/29 08:02:41;;;;;;;50.10;37.20;;;;;;;28.53;43.50;98897.63;5032138;28;20175;-88
2022/08/29 08:05:07;;;;;;;61.22;49.30;;;;;;;30.34;42.44;99139.34;5032375;28;20217;-87
2022/08/29 08:07:33;;;;;;;40.42;29.25;;;;;;;29.75;42.95;99181.63;5046650;28;20266;-88
2022/08/29 08:09:59;;;;;;;40.88;31.67;;;;;;;28.93;42.37;98937.81;5050730;28;20189;-88
2022/08/29 08:12:25;;;;;;;21.75;16.63;;;;;;;30.37;42.15;99196.72;5051750;28;20193;-88
2022/08/29 08:14:51;;;;;;;18.05;12.88;;;;;;;29.42;42.04;98957.69;5034747;28;20193;-88
2022/08/29 08:17:17;;;;;;;25.73;21.05;;;;;;;29.24;42.64;98927.97;5032463;28;20208;-88
2022/08/29 08:19:43;;;;;;;30.15;21.30;;;;;;;30.46;41.39;99023.06;5032084;28;20688;-87
2022/08/29 08:22:08;;;;;;;45.80;31.58;;;;;;;31.10;40.04;99094.31;5030223;28;20193;-87
2022/08/29 08:24:34;;;;;;;24.75;14.82;;;;;;;30.70;40.64;99127.41;5031331;28;20246;-88
2022/08/29 08:26:59;;;;;;;22.10;15.80;;;;;;;30.55;40.35;99065.31;5027807;28;20220;-88
2022/08/29 08:29:25;;;;;;;24.15;18.92;;;;;;;31.59;39.23;99187.22;5022390;28;20617;-88
2022/08/29 08:31:51;;;;;;;15.88;12.60;;;;;;;30.20;40.79;99060.66;5031740;28;20188;-89
2022/08/29 08:34:17;;;;;;;19.80;12.32;;;;;;;30.87;40.49;99114.47;5031706;28;20180;-88
2022/08/29 08:36:43;;;;;;;19.25;11.60;;;;;;;30.37;39.93;99037.34;5021770;28;20184;-88
2022/08/29 08:39:10;;;;;;;20.17;11.85;;;;;;;30.28;40.00;99012.44;5020052;28;20238;-89
2022/08/29 08:41:35;;;;;;;18.95;11.05;;;;;;;31.65;39.75;99177.31;5031849;28;20209;-89
2022/08/29 08:44:05;;;;;;;15.05;11.15;;;;;;;31.91;39.42;99181.34;5031828;28;20204;-88
2022/08/29 08:46:38;;;;;;;17.20;11.35;;;;;;;30.99;39.40;99020.75;5031349;28;20212;-87
2022/08/29 08:49:13;;;;;;;15.05;10.30;;;;;;;29.33;39.50;98844.16;5019395;28;20246;-89
2022/08/29 08:51:44;;;;;;;17.00;10.70;;;;;;;30.28;38.97;98985.44;5030900;28;20249;-88
2022/08/29 08:54:24;;;;;;;14.40;10.05;;;;;;;32.24;37.87;99185.03;5030796;28;20271;-88
2022/08/29 08:57:09;;;;;;;14.73;10.40;;;;;;;32.09;36.73;99062.63;5031098;28;20185;-89
2022/08/29 08:59:39;;;;;;;15.40;10.43;;;;;;;31.16;38.63;99071.34;5031114;28;20289;-89
2022/08/29 09:02:44;;;;;;;13.80;10.23;;;;;;;32.54;37.81;99177.50;5032389;28;20276;-90
2022/08/29 09:05:27;;;;;;;14.18;10.45;;;;;;;31.38;38.90;99173.28;5031046;28;20248;-91
2022/08/29 09:08:01;;;;;;;17.70;10.13;;;;;;;32.06;38.35;99165.78;5030963;28;20215;-91
2022/08/29 09:10:44;;;;;;;18.50;10.68;;;;;;;30.39;38.38;98855.25;5015347;28;20185;-85
2022/08/29 09:13:10;;;;;;;15.52;10.45;;;;;;;32.91;37.62;99160.78;5045205;28;20186;-92
2022/08/29 09:15:59;;;;;;;17.27;10.20;;;;;;;32.93;37.07;99103.84;5013609;28;20190;-87
2022/08/29 09:18:38;;;;;;;18.88;10.85;;;;;;;33.52;36.53;99156.66;5024983;28;20193;-90
2022/08/29 09:21:12;;;;;;;20.15;10.82;;;;;;;31.54;36.13;98827.06;5033412;28;20178;-90
2022/08/29 09:23:48;;;;;;;14.98;10.15;;;;;;;33.09;37.75;99146.75;5034397;28;20243;-90
2022/08/29 09:26:19;;;;;;;16.55;10.23;;;;;;;31.48;37.47;98855.31;5035048;28;20209;-88
2022/08/29 09:28:48;;;;;;;18.05;10.60;;;;;;;33.39;36.94;99150.38;5022437;28;20268;-90
2022/08/29 09:31:33;;;;;;;18.00;10.00;;;;;;;33.84;35.65;99149.72;5031092;28;20194;-88
2022/08/29 09:34:02;;;;;;;13.32;9.82;;;;;;;30.87;35.51;98700.50;5035815;28;20246;-90
2022/08/29 09:36:36;;;;;;;15.55;9.57;;;;;;;33.88;35.37;99139.88;5033952;28;20189;-90
2022/08/29 09:39:24;;;;;;;15.70;9.65;;;;;;;32.91;35.66;98993.72;5026204;28;20222;-90
2022/08/29 09:41:52;;;;;;;15.10;9.95;;;;;;;34.17;35.12;99147.84;5037547;28;20200;-89
2022/08/29 09:44:28;;;;;;;16.30;10.38;;;;;;;34.11;35.29;99100.91;5069888;28;20177;-90
2022/08/29 09:47:19;;;;;;;15.32;9.52;;;;;;;33.77;35.13;99053.78;5055959;28;20265;-92
2022/08/29 09:50:11;;;;;;;18.88;10.10;;;;;;;33.82;35.32;99106.91;5053925;28;20206;-88
2022/08/29 09:52:51;;;;;;;17.13;9.70;;;;;;;33.57;34.64;98984.00;5046984;28;20190;-88
2022/08/29 09:55:27;;;;;;;19.45;10.50;;;;;;;35.07;34.16;99140.88;5039243;28;20202;-87
2022/08/29 09:57:58;;;;;;;20.33;9.90;;;;;;;33.57;34.45;98899.16;5025070;28;20178;-88
2022/08/29 10:00:29;;;;;;;13.85;10.02;;;;;;;34.38;35.03;99133.50;5017462;28;20182;-89
2022/08/29 10:02:59;;;;;;;16.80;10.00;;;;;;;33.65;35.77;99083.38;5051014;28;20194;-89
2022/08/29 10:05:44;;;;;;;17.60;10.18;;;;;;;33.55;35.25;99046.22;5034394;28;20205;-88
2022/08/29 10:08:33;;;;;;;14.73;10.35;;;;;;;34.75;34.56;99123.50;5034627;28;20201;-89
2022/08/29 10:11:02;;;;;;;20.35;10.07;;;;;;;34.96;34.51;99116.97;5036530;28;20194;-89
2022/08/29 10:13:36;;;;;;;14.90;10.00;;;;;;;34.33;33.92;98966.44;5037032;28;20205;-88
2022/08/29 10:16:15;;;;;;;18.08;9.45;;;;;;;34.80;32.73;99006.53;5032495;28;20769;-89
2022/08/29 10:18:52;;;;;;;17.08;9.60;;;;;;;35.74;32.18;99115.69;5024257;28;20246;-88
2022/08/29 10:21:52;;;;;;;17.90;9.15;;;;;;;36.04;31.60;99116.38;5023313;28;20186;-88
2022/08/29 10:24:45;;;;;;;15.65;9.45;;;;;;;35.62;31.38;99113.81;5041120;28;20590;-88
2022/08/29 10:27:29;;;;;;;14.85;9.50;;;;;;;35.58;32.54;99107.88;5027102;28;20313;-91
2022/08/29 10:30:06;;;;;;;18.33;9.82;;;;;;;35.52;32.31;99097.69;5011990;28;20191;-90
2022/08/29 10:33:03;;;;;;;16.70;9.50;;;;;;;35.57;32.42;99100.06;5025151;28;20193;-91
2022/08/29 10:35:59;;;;;;;17.00;9.73;;;;;;;35.58;31.80;99097.34;5031307;28;20738;-93
2022/08/29 10:38:28;;;;;;;15.80;9.82;;;;;;;35.68;31.38;99097.63;5022631;28;20705;-90
2022/08/29 10:41:06;;;;;;;18.05;12.15;;;;;;;35.47;32.22;99010.22;5031929;28;20198;-89
2022/08/29 10:43:38;;;;;;;17.70;9.73;;;;;;;36.31;31.28;99089.97;5030951;28;20660;-92
2022/08/29 10:46:15;;;;;;;16.95;9.32;;;;;;;36.64;30.67;99093.03;5028287;28;20577;-90
2022/08/29 10:48:47;;;;;;;16.30;9.32;;;;;;;35.82;30.92;98979.00;5029806;28;20185;-91
2022/08/29 10:51:58;;;;;;;13.43;8.80;;;;;;;36.54;30.20;99079.59;5029559;28;20194;-89
2022/08/29 10:55:02;;;;;;;18.88;10.20;;;;;;;35.93;31.84;99074.00;4986695;28;20710;-90
2022/08/29 10:57:42;;;;;;;18.67;9.98;;;;;;;35.81;31.87;99088.81;4987305;28;20297;-91
2022/08/29 11:00:12;;;;;;;20.42;10.10;;;;;;;35.47;32.92;99084.81;4987281;28;20210;-91
2022/08/29 11:02:37;;;;;;;18.75;9.48;;;;;;;35.27;32.86;99082.56;4987239;28;20187;-90
2022/08/29 11:05:12;;;;;;;16.95;10.02;;;;;;;33.92;33.71;98912.84;4986192;28;20285;-90
2022/08/29 11:07:57;;;;;;;15.52;10.48;;;;;;;33.50;34.90;98969.50;4971367;28;20221;-90
2022/08/29 11:10:27;;;;;;;17.42;10.55;;;;;;;32.72;34.49;98787.66;5002385;28;20203;-88
2022/08/29 11:12:58;;;;;;;18.33;9.98;;;;;;;34.48;34.03;99009.34;5009215;28;20194;-87
2022/08/29 11:15:30;;;;;;;17.48;9.45;;;;;;;35.33;32.97;99066.38;4991259;28;20187;-89
2022/08/29 11:18:33;;;;;;;14.32;9.98;;;;;;;35.52;32.89;99059.03;4988108;28;20203;-90
2022/08/29 11:21:05;;;;;;;15.88;9.93;;;;;;;34.71;32.76;98906.28;4988059;28;20190;-89
2022/08/29 11:23:46;;;;;;;19.52;9.70;;;;;;;34.97;32.58;98901.06;4986741;28;20219;-90
2022/08/29 11:26:21;;;;;;;21.48;10.43;;;;;;;35.84;32.62;99045.63;4970994;28;20265;-91
2022/08/29 11:29:15;;;;;;;15.77;9.45;;;;;;;35.46;33.13;99034.88;4972463;28;20228;-91
2022/08/29 11:32:02;;;;;;;18.88;9.88;;;;;;;34.76;33.62;99027.84;4953750;28;20228;-91